Time;durP1;ratioP1;P1;durP2;ratioP2;P2;SDS_P1;SDS_P2;PMS_P1;PMS_P2;Temp;Humidity;BMP_temperature;BMP_pressure;BME280_temperature;BME280_humidity;BME280_pressure;Samples;Min_cycle;Max_cycle;Signal;HPM_P1;HPM_P2
2023/10/30 00:01:13;;;;;;;0.70;0.70;;;19.00;77.80;;;;;;5130429;27;43837;-72
2023/10/30 00:03:41;;;;;;;0.60;0.60;;;19.10;77.30;;;;;;5128219;27;45378;-72
2023/10/30 00:06:09;;;;;;;0.53;0.53;;;19.20;76.70;;;;;;5129060;27;43443;-72
2023/10/30 00:08:37;;;;;;;0.77;0.77;;;19.30;76.50;;;;;;5135904;27;43456;-70
2023/10/30 00:11:05;;;;;;;0.60;0.60;;;19.30;76.30;;;;;;5130047;27;43800;-70
2023/10/30 00:13:33;;;;;;;0.70;0.70;;;19.30;76.40;;;;;;5134544;27;43724;-70
2023/10/30 00:16:01;;;;;;;0.60;0.60;;;19.20;76.50;;;;;;5135044;27;43438;-70
2023/10/30 00:18:32;;;;;;;0.60;0.60;;;19.10;76.60;;;;;;5135565;27;43548;-70
2023/10/30 00:21:00;;;;;;;0.60;0.60;;;19.10;77.30;;;;;;5131684;27;45469;-70
2023/10/30 00:23:28;;;;;;;0.80;0.80;;;19.10;77.40;;;;;;5125015;27;43358;-70
2023/10/30 00:25:56;;;;;;;0.50;0.50;;;19.00;77.20;;;;;;5131693;27;43392;-70
2023/10/30 00:28:24;;;;;;;0.50;0.50;;;19.00;77.80;;;;;;5134500;27;43392;-71
2023/10/30 00:30:53;;;;;;;0.60;0.60;;;19.00;77.20;;;;;;5133521;27;45285;-70
2023/10/30 00:33:21;;;;;;;0.67;0.67;;;19.00;77.60;;;;;;5129532;27;43617;-70
2023/10/30 00:35:50;;;;;;;0.40;0.40;;;18.90;77.80;;;;;;5128897;27;43346;-70
2023/10/30 00:38:18;;;;;;;0.60;0.60;;;18.90;77.50;;;;;;5128552;27;43374;-70
2023/10/30 00:40:47;;;;;;;0.50;0.50;;;18.90;77.50;;;;;;5134254;27;46383;-70
2023/10/30 00:43:15;;;;;;;0.60;0.60;;;18.90;77.50;;;;;;5134357;27;44707;-70
2023/10/30 00:45:43;;;;;;;0.77;0.77;;;18.90;77.50;;;;;;5134445;27;43775;-70
2023/10/30 00:48:11;;;;;;;0.50;0.50;;;18.90;78.00;;;;;;5130079;27;43798;-71
2023/10/30 00:50:39;;;;;;;0.57;0.57;;;18.90;78.00;;;;;;5129266;27;43794;-71
2023/10/30 00:53:09;;;;;;;0.80;0.80;;;19.10;77.80;;;;;;5124383;27;44878;-72
2023/10/30 00:55:38;;;;;;;0.70;0.70;;;19.20;77.20;;;;;;5128388;27;43523;-72
2023/10/30 00:58:07;;;;;;;0.50;0.50;;;19.30;76.70;;;;;;5126715;27;43589;-72
2023/10/30 01:00:37;;;;;;;0.60;0.60;;;19.30;76.40;;;;;;5129398;27;43720;-71
2023/10/30 01:03:05;;;;;;;1.30;0.60;;;19.30;76.30;;;;;;5127682;27;43383;-71
2023/10/30 01:05:33;;;;;;;0.60;0.60;;;19.20;76.30;;;;;;5126538;27;43512;-72
2023/10/30 01:08:01;;;;;;;0.60;0.60;;;19.20;76.60;;;;;;5127579;27;43377;-72
2023/10/30 01:10:30;;;;;;;0.50;0.50;;;19.10;76.90;;;;;;5128998;27;43975;-72
2023/10/30 01:12:58;;;;;;;0.60;0.60;;;19.10;77.50;;;;;;5124142;27;43400;-72
2023/10/30 01:15:26;;;;;;;0.70;0.70;;;19.00;77.30;;;;;;5127233;27;43392;-72
2023/10/30 01:17:55;;;;;;;0.63;0.63;;;19.00;77.20;;;;;;5129962;27;43659;-70
2023/10/30 01:20:24;;;;;;;0.60;0.60;;;19.00;77.20;;;;;;5131588;27;45210;-70
2023/10/30 01:22:52;;;;;;;0.60;0.60;;;18.90;77.20;;;;;;5133491;27;45131;-71
2023/10/30 01:25:20;;;;;;;0.40;0.40;;;18.90;77.60;;;;;;5135457;27;43365;-70
2023/10/30 01:27:50;;;;;;;0.40;0.40;;;18.90;77.80;;;;;;5132937;27;43412;-70
2023/10/30 01:30:18;;;;;;;0.50;0.50;;;18.90;77.60;;;;;;5133450;27;46045;-70
2023/10/30 01:32:46;;;;;;;0.47;0.47;;;18.90;77.50;;;;;;5134805;27;43424;-70
2023/10/30 01:35:14;;;;;;;0.57;0.57;;;18.90;77.50;;;;;;5131913;27;43476;-70
2023/10/30 01:37:43;;;;;;;0.60;0.60;;;18.90;77.70;;;;;;5134494;27;43523;-70
2023/10/30 01:40:11;;;;;;;0.50;0.50;;;18.90;78.10;;;;;;5133089;27;45303;-70
2023/10/30 01:42:40;;;;;;;0.50;0.50;;;18.90;77.90;;;;;;5134648;27;43550;-70
2023/10/30 01:45:10;;;;;;;0.70;0.70;;;19.10;77.50;;;;;;5134987;27;43429;-70
2023/10/30 01:47:38;;;;;;;0.60;0.60;;;19.20;77.60;;;;;;5128399;27;44160;-70
2023/10/30 01:50:09;;;;;;;0.60;0.60;;;19.30;76.50;;;;;;5132846;27;46113;-70
2023/10/30 01:52:37;;;;;;;0.60;0.60;;;19.30;76.40;;;;;;5133577;27;43955;-70
2023/10/30 01:55:06;;;;;;;0.50;0.50;;;19.30;76.40;;;;;;5129454;27;43944;-70
2023/10/30 01:57:34;;;;;;;0.47;0.47;;;19.20;76.50;;;;;;5127836;27;43576;-68
2023/10/30 02:00:02;;;;;;;0.60;0.60;;;19.10;76.70;;;;;;5127575;27;45823;-68
2023/10/30 02:02:41;;;;;;;0.37;0.37;;;19.00;77.20;;;;;;5120284;27;43966;-68
2023/10/30 02:05:09;;;;;;;0.50;0.50;;;19.00;77.40;;;;;;5128128;27;43360;-68
2023/10/30 02:07:37;;;;;;;0.50;0.50;;;19.00;77.20;;;;;;5128072;27;43688;-68
2023/10/30 02:10:07;;;;;;;0.40;0.40;;;19.00;77.30;;;;;;5126319;27;45723;-68
2023/10/30 02:12:35;;;;;;;0.60;0.60;;;18.90;77.30;;;;;;5127569;27;45075;-68
2023/10/30 02:15:04;;;;;;;0.57;0.57;;;18.90;77.60;;;;;;5123651;27;43468;-68
2023/10/30 02:17:32;;;;;;;0.60;0.60;;;18.90;78.00;;;;;;5122493;27;43445;-69
2023/10/30 02:20:02;;;;;;;0.43;0.43;;;19.00;77.80;;;;;;5130624;27;45496;-68
2023/10/30 02:22:30;;;;;;;0.50;0.50;;;19.10;77.50;;;;;;5130244;27;44746;-68
2023/10/30 02:24:58;;;;;;;0.60;0.60;;;19.10;77.20;;;;;;5130974;27;43428;-68
2023/10/30 02:27:28;;;;;;;0.70;0.70;;;19.10;77.00;;;;;;5130649;27;43614;-72
2023/10/30 02:29:56;;;;;;;0.60;0.60;;;19.10;77.50;;;;;;5128181;27;43851;-72
2023/10/30 02:32:24;;;;;;;0.60;0.60;;;19.10;77.40;;;;;;5128891;27;44949;-72
2023/10/30 02:34:52;;;;;;;0.40;0.40;;;19.10;77.20;;;;;;5130576;27;43408;-72
2023/10/30 02:37:20;;;;;;;0.60;0.60;;;19.00;77.10;;;;;;5129827;27;43476;-71
2023/10/30 02:39:48;;;;;;;0.40;0.40;;;19.00;77.20;;;;;;5130370;27;45721;-72
2023/10/30 02:42:17;;;;;;;0.57;0.57;;;18.90;77.30;;;;;;5130017;27;44861;-72
2023/10/30 02:44:46;;;;;;;0.50;0.50;;;18.90;77.90;;;;;;5125886;27;43386;-72
2023/10/30 02:47:14;;;;;;;0.43;0.43;;;18.90;77.70;;;;;;5123403;27;43426;-71
2023/10/30 02:49:42;;;;;;;0.50;0.50;;;18.90;77.50;;;;;;5129091;27;45704;-72
2023/10/30 02:52:10;;;;;;;0.50;0.50;;;18.90;77.60;;;;;;5129383;27;44409;-72
2023/10/30 02:54:39;;;;;;;0.50;0.50;;;18.80;77.60;;;;;;5131683;27;43380;-72
2023/10/30 02:57:07;;;;;;;0.33;0.33;;;18.80;77.90;;;;;;5128649;27;43506;-72
2023/10/30 02:59:35;;;;;;;0.43;0.43;;;18.90;78.30;;;;;;5125516;27;45859;-71
2023/10/30 03:02:05;;;;;;;0.60;0.60;;;18.90;77.90;;;;;;5131172;27;43354;-71
2023/10/30 03:04:33;;;;;;;0.40;0.40;;;19.10;77.50;;;;;;5128843;27;43964;-71
2023/10/30 03:07:01;;;;;;;0.37;0.37;;;19.10;77.20;;;;;;5130526;27;43545;-68
2023/10/30 03:09:32;;;;;;;0.60;0.60;;;19.10;76.90;;;;;;5127120;27;45731;-68
2023/10/30 03:12:00;;;;;;;0.33;0.33;;;19.10;77.20;;;;;;5126520;27;44611;-68
2023/10/30 03:14:28;;;;;;;0.50;0.50;;;19.10;77.40;;;;;;5130255;27;43359;-67
2023/10/30 03:16:56;;;;;;;0.50;0.50;;;19.10;77.20;;;;;;5132417;27;44444;-67
2023/10/30 03:19:25;;;;;;;0.77;0.47;;;19.10;77.10;;;;;;5130724;27;45645;-67
2023/10/30 03:21:53;;;;;;;0.50;0.50;;;19.00;77.00;;;;;;5123796;27;44705;-67
2023/10/30 03:24:21;;;;;;;0.50;0.50;;;19.00;77.10;;;;;;5131117;27;43370;-67
2023/10/30 03:26:50;;;;;;;0.60;0.60;;;19.00;77.70;;;;;;5122654;27;43419;-67
2023/10/30 03:29:18;;;;;;;0.50;0.50;;;18.90;77.50;;;;;;5128867;27;45981;-68
2023/10/30 03:31:46;;;;;;;0.40;0.40;;;18.90;77.40;;;;;;5117110;27;44739;-69
2023/10/30 03:34:16;;;;;;;0.57;0.57;;;19.00;77.50;;;;;;5126617;27;44158;-69
2023/10/30 03:36:45;;;;;;;0.50;0.50;;;18.90;77.40;;;;;;5124901;27;43398;-71
2023/10/30 03:39:13;;;;;;;0.60;0.60;;;18.90;77.60;;;;;;5135341;27;46094;-70
2023/10/30 03:41:44;;;;;;;0.70;0.70;;;18.90;78.10;;;;;;5135124;27;43401;-70
2023/10/30 03:44:12;;;;;;;0.40;0.40;;;19.00;78.00;;;;;;5136880;27;43891;-70
2023/10/30 03:46:40;;;;;;;0.43;0.43;;;19.10;77.50;;;;;;5130715;27;43403;-70
2023/10/30 03:49:10;;;;;;;0.40;0.40;;;19.10;77.20;;;;;;5136058;27;43598;-70
2023/10/30 03:51:38;;;;;;;0.50;0.50;;;19.10;76.90;;;;;;5133716;27;44881;-70
2023/10/30 03:54:09;;;;;;;0.50;0.50;;;19.10;77.10;;;;;;5135598;27;43393;-71
2023/10/30 03:56:37;;;;;;;0.53;0.53;;;19.10;77.30;;;;;;5132357;27;43411;-70
2023/10/30 03:59:05;;;;;;;0.40;0.40;;;19.10;77.20;;;;;;5132430;27;43631;-70
2023/10/30 04:01:33;;;;;;;0.47;0.47;;;19.10;77.10;;;;;;5130739;27;43504;-71
2023/10/30 04:04:01;;;;;;;0.53;0.53;;;19.00;77.00;;;;;;5135952;27;43437;-70
2023/10/30 04:06:29;;;;;;;0.40;0.40;;;19.00;77.20;;;;;;5134640;27;43475;-70
2023/10/30 04:08:57;;;;;;;0.40;0.40;;;18.90;77.70;;;;;;5136770;27;43906;-70
2023/10/30 04:11:26;;;;;;;0.50;0.50;;;18.90;77.50;;;;;;5135449;27;43386;-70
2023/10/30 04:13:54;;;;;;;0.40;0.40;;;18.90;77.40;;;;;;5136032;27;43483;-70
2023/10/30 04:16:22;;;;;;;0.40;0.40;;;18.90;77.40;;;;;;5135462;27;43508;-70
2023/10/30 04:18:50;;;;;;;0.40;0.40;;;18.90;77.50;;;;;;5135762;27;43886;-70
2023/10/30 04:21:18;;;;;;;0.33;0.33;;;18.80;77.90;;;;;;5136033;27;43444;-70
2023/10/30 04:23:47;;;;;;;0.50;0.50;;;18.90;78.00;;;;;;5136146;27;43417;-70
2023/10/30 04:26:15;;;;;;;0.60;0.60;;;19.00;77.70;;;;;;5135123;27;43423;-70
2023/10/30 04:28:44;;;;;;;0.40;0.40;;;19.10;77.40;;;;;;5135059;27;43582;-71
2023/10/30 04:31:12;;;;;;;0.50;0.50;;;19.10;77.10;;;;;;5134698;27;43544;-70
2023/10/30 04:33:40;;;;;;;0.50;0.50;;;19.10;76.90;;;;;;5135761;27;43466;-70
2023/10/30 04:36:08;;;;;;;0.33;0.33;;;19.10;77.40;;;;;;5130889;27;43408;-70
2023/10/30 04:38:36;;;;;;;0.40;0.40;;;19.10;77.40;;;;;;5129974;27;43902;-70
2023/10/30 04:41:05;;;;;;;0.50;0.50;;;19.10;77.20;;;;;;5135277;27;43416;-70
2023/10/30 04:43:33;;;;;;;0.40;0.40;;;19.00;77.10;;;;;;5132573;27;43424;-70
2023/10/30 04:46:02;;;;;;;0.37;0.37;;;19.00;77.20;;;;;;5131950;27;43452;-70
2023/10/30 04:48:31;;;;;;;0.40;0.40;;;18.90;77.50;;;;;;5130701;27;43659;-68
2023/10/30 04:50:59;;;;;;;0.40;0.40;;;18.90;77.70;;;;;;5123573;27;45120;-68
2023/10/30 04:53:29;;;;;;;0.30;0.30;;;18.90;77.50;;;;;;5130295;27;43385;-67
2023/10/30 04:55:57;;;;;;;0.40;0.40;;;18.90;77.50;;;;;;5127044;27;43532;-69
2023/10/30 04:58:25;;;;;;;0.30;0.30;;;18.90;77.50;;;;;;5125102;27;44747;-68
2023/10/30 05:00:53;;;;;;;0.60;0.60;;;18.90;77.60;;;;;;5129909;27;43511;-68
2023/10/30 05:03:23;;;;;;;0.40;0.40;;;18.80;78.00;;;;;;5125713;27;43456;-68
2023/10/30 05:05:51;;;;;;;0.47;0.47;;;18.90;78.00;;;;;;5126330;27;43429;-68
2023/10/30 05:08:20;;;;;;;0.50;0.50;;;19.00;77.60;;;;;;5130056;27;43763;-68
2023/10/30 05:10:48;;;;;;;0.50;0.50;;;19.10;77.30;;;;;;5128213;27;44724;-69
2023/10/30 05:13:16;;;;;;;0.40;0.40;;;19.10;77.00;;;;;;5129926;27;43948;-68
2023/10/30 05:15:44;;;;;;;0.50;0.50;;;19.10;77.00;;;;;;5130454;27;43592;-68
2023/10/30 05:18:12;;;;;;;0.50;0.50;;;19.10;77.40;;;;;;5128473;27;45657;-68
2023/10/30 05:20:41;;;;;;;0.40;0.40;;;19.10;77.20;;;;;;5126590;27;43356;-68
2023/10/30 05:23:10;;;;;;;0.57;0.57;;;19.10;77.00;;;;;;5129253;27;43453;-68
2023/10/30 05:25:38;;;;;;;0.30;0.30;;;19.00;77.00;;;;;;5128011;27;43592;-68
2023/10/30 05:28:10;;;;;;;0.70;0.70;;;19.00;77.10;;;;;;5131596;27;43598;-70
2023/10/30 05:30:38;;;;;;;2.07;0.80;;;18.90;77.50;;;;;;5133693;27;44602;-70
2023/10/30 05:33:07;;;;;;;0.70;0.70;;;18.90;77.60;;;;;;5130140;27;43415;-70
2023/10/30 05:35:35;;;;;;;0.90;0.90;;;18.90;77.40;;;;;;5134193;27;43434;-70
2023/10/30 05:38:05;;;;;;;0.80;0.80;;;18.90;77.40;;;;;;5131014;27;43629;-70
2023/10/30 05:40:33;;;;;;;0.90;0.90;;;18.90;77.40;;;;;;5134913;27;43371;-70
2023/10/30 05:43:01;;;;;;;1.00;1.00;;;18.90;77.60;;;;;;5135961;27;43302;-70
2023/10/30 05:45:29;;;;;;;1.13;1.13;;;18.90;78.70;;;;;;5135996;27;43521;-71
2023/10/30 05:47:57;;;;;;;1.57;1.47;;;18.90;77.70;;;;;;5133902;27;43881;-70
2023/10/30 05:50:25;;;;;;;1.33;1.33;;;18.90;77.60;;;;;;5134981;27;44025;-70
2023/10/30 05:52:53;;;;;;;1.07;1.07;;;18.90;77.60;;;;;;5130624;27;43374;-70
2023/10/30 05:55:23;;;;;;;1.50;1.40;;;18.90;77.60;;;;;;5138792;27;43430;-70
2023/10/30 05:57:51;;;;;;;1.30;1.20;;;18.80;78.00;;;;;;5128538;27;43662;-70
2023/10/30 06:00:19;;;;;;;1.30;1.23;;;18.90;78.10;;;;;;5130383;27;43588;-71
2023/10/30 06:02:46;;;;;;;1.47;1.37;;;19.00;77.90;;;;;;5129009;27;43459;-70
2023/10/30 06:05:15;;;;;;;1.70;1.43;;;19.10;77.40;;;;;;5132696;27;43388;-71
2023/10/30 06:07:43;;;;;;;1.60;1.50;;;19.20;76.80;;;;;;5126892;27;45203;-71
2023/10/30 06:10:11;;;;;;;1.37;1.30;;;19.30;76.60;;;;;;5132281;27;43537;-71
2023/10/30 06:12:41;;;;;;;1.20;1.10;;;19.20;76.40;;;;;;5131992;27;43385;-71
2023/10/30 06:15:10;;;;;;;1.50;1.40;;;19.20;76.60;;;;;;5131507;27;44007;-70
2023/10/30 06:17:38;;;;;;;1.37;1.33;;;19.10;76.70;;;;;;5131688;27;43680;-71
2023/10/30 06:20:08;;;;;;;1.77;1.67;;;19.10;76.90;;;;;;5129776;27;43422;-70
2023/10/30 06:22:37;;;;;;;1.73;1.63;;;19.00;77.50;;;;;;5131996;27;43412;-71
2023/10/30 06:25:06;;;;;;;1.43;1.33;;;19.00;77.50;;;;;;5132246;27;43330;-71
2023/10/30 06:27:34;;;;;;;1.50;1.40;;;19.00;77.40;;;;;;5129491;27;43891;-75
2023/10/30 06:30:05;;;;;;;1.27;1.27;;;18.90;77.20;;;;;;5124327;27;43955;-70
2023/10/30 06:32:33;;;;;;;1.50;1.40;;;18.90;77.30;;;;;;5131412;27;43481;-71
2023/10/30 06:35:02;;;;;;;1.50;1.40;;;18.90;77.90;;;;;;5130366;27;43429;-71
2023/10/30 06:37:30;;;;;;;1.70;1.60;;;18.90;77.90;;;;;;5132073;27;43594;-68
2023/10/30 06:39:59;;;;;;;1.40;1.30;;;18.90;77.50;;;;;;5132180;27;43360;-68
2023/10/30 06:42:27;;;;;;;2.33;1.63;;;18.90;77.50;;;;;;5132556;27;43408;-68
2023/10/30 06:44:55;;;;;;;1.60;1.50;;;18.90;78.20;;;;;;5126791;27;43356;-68
2023/10/30 06:47:24;;;;;;;1.60;1.50;;;18.80;77.60;;;;;;5131956;27;43851;-68
2023/10/30 06:49:52;;;;;;;1.70;1.60;;;18.80;78.10;;;;;;5130956;27;44276;-68
2023/10/30 06:52:20;;;;;;;1.23;1.20;;;18.90;77.90;;;;;;5132486;27;43380;-68
2023/10/30 06:54:48;;;;;;;1.40;1.40;;;19.00;77.50;;;;;;5127709;27;43294;-68
2023/10/30 06:57:16;;;;;;;1.40;1.40;;;19.20;77.10;;;;;;5119400;27;43587;-68
2023/10/30 06:59:44;;;;;;;1.70;1.60;;;19.30;76.60;;;;;;5124251;27;44909;-68
2023/10/30 07:02:12;;;;;;;1.60;1.50;;;19.30;76.40;;;;;;5128821;27;43460;-68
2023/10/30 07:04:42;;;;;;;1.63;1.53;;;19.30;76.30;;;;;;5125846;27;43412;-68
2023/10/30 07:07:10;;;;;;;1.53;1.43;;;19.20;76.40;;;;;;5133665;27;43763;-71
2023/10/30 07:09:38;;;;;;;1.47;1.47;;;19.20;76.60;;;;;;5129954;27;44755;-70
2023/10/30 07:12:06;;;;;;;1.30;1.30;;;19.10;77.00;;;;;;5128993;27;43433;-71
2023/10/30 07:14:35;;;;;;;1.50;1.40;;;19.10;77.40;;;;;;5138094;27;43451;-70
2023/10/30 07:17:03;;;;;;;1.67;1.57;;;19.00;77.10;;;;;;5137874;27;43607;-70
2023/10/30 07:19:32;;;;;;;1.40;1.40;;;19.00;77.10;;;;;;5137206;27;43478;-70
2023/10/30 07:22:02;;;;;;;1.70;1.60;;;19.00;77.20;;;;;;5137703;27;43969;-70
2023/10/30 07:24:30;;;;;;;1.40;1.40;;;18.90;77.30;;;;;;5137613;27;43651;-70
2023/10/30 07:26:58;;;;;;;1.67;1.57;;;18.90;77.70;;;;;;5132665;27;43957;-70
2023/10/30 07:29:26;;;;;;;1.47;1.40;;;18.90;77.60;;;;;;5136922;27;43349;-70
2023/10/30 07:31:55;;;;;;;1.50;1.50;;;18.90;77.50;;;;;;5136914;27;43356;-70
2023/10/30 07:34:23;;;;;;;1.60;1.50;;;18.90;77.50;;;;;;5137081;27;43398;-70
2023/10/30 07:36:51;;;;;;;1.70;1.60;;;18.90;77.50;;;;;;5137143;27;43680;-70
2023/10/30 07:39:20;;;;;;;1.73;1.70;;;18.90;77.90;;;;;;5136079;27;43472;-70
2023/10/30 07:41:48;;;;;;;1.40;1.30;;;18.90;78.20;;;;;;5136978;27;43347;-70
2023/10/30 07:44:16;;;;;;;1.47;1.40;;;19.00;77.90;;;;;;5136597;27;43393;-70
2023/10/30 07:46:44;;;;;;;1.70;1.60;;;19.10;77.30;;;;;;5134861;27;43598;-68
2023/10/30 07:49:12;;;;;;;1.47;1.37;;;19.20;76.70;;;;;;5126175;27;43411;-68
2023/10/30 07:51:40;;;;;;;1.50;1.40;;;19.30;76.50;;;;;;5127361;27;43366;-68
2023/10/30 07:54:09;;;;;;;1.50;1.40;;;19.30;76.40;;;;;;5129618;27;43416;-68
2023/10/30 07:56:38;;;;;;;1.63;1.53;;;19.20;76.30;;;;;;5126096;27;43629;-68
2023/10/30 07:59:06;;;;;;;1.47;1.37;;;19.20;76.60;;;;;;5130924;27;43507;-68
2023/10/30 08:01:34;;;;;;;1.50;1.40;;;19.10;76.80;;;;;;5131176;27;43446;-68
2023/10/30 08:04:03;;;;;;;1.50;1.30;;;19.00;77.30;;;;;;5130929;27;43472;-68
2023/10/30 08:06:32;;;;;;;1.40;1.40;;;19.00;77.40;;;;;;5130904;27;43757;-68
2023/10/30 08:09:00;;;;;;;1.60;1.50;;;19.00;77.30;;;;;;5129458;27;44049;-68
2023/10/30 08:11:28;;;;;;;1.43;1.43;;;19.00;77.30;;;;;;5131264;27;43406;-68
2023/10/30 08:13:57;;;;;;;1.40;1.30;;;19.00;77.40;;;;;;5130126;27;43535;-68
2023/10/30 08:16:25;;;;;;;1.63;1.50;;;18.90;77.70;;;;;;5130038;27;44048;-70
2023/10/30 08:18:53;;;;;;;1.60;1.50;;;18.90;77.90;;;;;;5130572;27;43523;-71
2023/10/30 08:21:21;;;;;;;1.40;1.40;;;18.90;77.70;;;;;;5129865;27;43344;-72
2023/10/30 08:23:49;;;;;;;1.47;1.37;;;18.90;77.60;;;;;;5130894;27;43421;-72
2023/10/30 08:26:17;;;;;;;1.70;1.60;;;18.90;77.60;;;;;;5126676;27;45377;-71
2023/10/30 08:28:46;;;;;;;1.63;1.53;;;18.80;77.60;;;;;;5129797;27;43543;-72
2023/10/30 08:31:17;;;;;;;1.53;1.40;;;18.80;78.00;;;;;;5129183;27;43495;-72
2023/10/30 08:33:45;;;;;;;1.70;1.60;;;18.90;78.80;;;;;;5130214;27;43491;-71
2023/10/30 08:36:21;;;;;;;1.63;1.60;;;19.00;77.70;;;;;;5122537;27;43844;-72
2023/10/30 08:38:49;;;;;;;1.37;1.37;;;19.10;77.20;;;;;;5127466;27;43850;-72
2023/10/30 08:41:20;;;;;;;1.53;1.43;;;19.20;76.70;;;;;;5129956;27;43456;-72
2023/10/30 08:43:48;;;;;;;1.70;1.60;;;19.30;76.50;;;;;;5129338;27;43420;-72
2023/10/30 08:46:20;;;;;;;1.40;1.40;;;19.20;76.40;;;;;;5129757;27;44020;-72
2023/10/30 08:48:48;;;;;;;1.67;1.57;;;19.20;76.50;;;;;;5122244;27;44819;-72
2023/10/30 08:51:16;;;;;;;1.57;1.53;;;19.10;76.60;;;;;;5128296;27;43347;-71
2023/10/30 08:53:44;;;;;;;1.30;1.30;;;19.10;76.90;;;;;;5130576;27;43471;-71
2023/10/30 08:56:14;;;;;;;1.30;1.30;;;19.00;77.50;;;;;;5126029;27;43922;-71
2023/10/30 08:58:42;;;;;;;1.50;1.50;;;19.00;77.40;;;;;;5128074;27;43444;-70
2023/10/30 09:01:10;;;;;;;1.40;1.40;;;19.00;77.40;;;;;;5129511;27;43419;-70
2023/10/30 09:03:41;;;;;;;1.30;1.30;;;19.00;77.40;;;;;;5124097;27;43480;-70
2023/10/30 09:06:09;;;;;;;1.50;1.40;;;18.90;77.40;;;;;;5128395;27;43528;-70
2023/10/30 09:08:37;;;;;;;1.43;1.43;;;18.80;77.50;;;;;;5127796;27;44761;-70
2023/10/30 09:11:05;;;;;;;1.23;1.23;;;18.90;78.00;;;;;;5129321;27;43943;-70
2023/10/30 09:13:34;;;;;;;1.70;1.60;;;18.90;77.80;;;;;;5128942;27;43549;-70
2023/10/30 09:16:02;;;;;;;1.67;1.60;;;19.00;77.40;;;;;;5129292;27;43600;-70
2023/10/30 09:18:30;;;;;;;1.70;1.50;;;19.10;77.20;;;;;;5124865;27;43421;-70
2023/10/30 09:20:59;;;;;;;1.50;1.40;;;19.10;77.00;;;;;;5129441;27;43414;-70
2023/10/30 09:23:27;;;;;;;1.40;1.40;;;19.10;77.50;;;;;;5129437;27;43529;-70
2023/10/30 09:25:55;;;;;;;1.20;1.20;;;19.10;77.40;;;;;;5128238;27;43615;-70
2023/10/30 09:28:23;;;;;;;1.60;1.50;;;19.00;77.10;;;;;;5135753;27;43472;-70
2023/10/30 09:30:53;;;;;;;1.87;1.40;;;19.00;77.00;;;;;;5139492;27;43894;-70
2023/10/30 09:33:21;;;;;;;1.40;1.40;;;19.00;77.20;;;;;;5138354;27;43556;-69
2023/10/30 09:35:49;;;;;;;1.50;1.50;;;18.90;77.20;;;;;;5138201;27;43614;-70
2023/10/30 09:38:19;;;;;;;1.80;1.70;;;18.90;77.70;;;;;;5137902;27;43415;-70
2023/10/30 09:40:47;;;;;;;1.30;1.30;;;18.90;77.70;;;;;;5138410;27;43354;-70
2023/10/30 09:43:15;;;;;;;1.67;1.40;;;18.90;77.50;;;;;;5138506;27;43497;-70
2023/10/30 09:45:45;;;;;;;1.40;1.37;;;18.90;77.50;;;;;;5129621;27;44061;-70
2023/10/30 09:48:13;;;;;;;1.33;1.33;;;18.90;77.50;;;;;;5135733;27;45046;-70
2023/10/30 09:50:41;;;;;;;1.30;1.30;;;18.90;77.90;;;;;;5135856;27;43403;-70
2023/10/30 09:53:10;;;;;;;1.50;1.50;;;18.90;78.10;;;;;;5135847;27;43472;-70
2023/10/30 09:55:39;;;;;;;1.27;1.27;;;18.90;77.80;;;;;;5132680;27;43607;-70
2023/10/30 09:58:08;;;;;;;1.70;1.60;;;19.10;77.50;;;;;;5137403;27;43402;-70
2023/10/30 10:00:36;;;;;;;1.33;1.33;;;19.20;76.90;;;;;;5136917;27;43379;-70
2023/10/30 10:03:06;;;;;;;1.70;1.60;;;19.30;76.70;;;;;;5137350;27;44118;-70
2023/10/30 10:05:34;;;;;;;1.43;1.43;;;19.20;76.50;;;;;;5136530;27;43594;-70
2023/10/30 10:08:04;;;;;;;1.10;1.10;;;19.20;76.50;;;;;;5132305;27;43659;-71
2023/10/30 10:10:55;;;;;;;1.33;1.33;;;19.10;76.60;;;;;;5132466;27;43366;-71
2023/10/30 10:13:27;;;;;;;1.50;1.43;;;19.10;76.90;;;;;;5131159;27;43415;-71
2023/10/30 10:15:55;;;;;;;1.70;1.60;;;19.00;77.40;;;;;;5113751;27;43680;-71
2023/10/30 10:18:24;;;;;;;1.50;1.40;;;19.00;77.40;;;;;;5131810;27;43452;-72
2023/10/30 10:20:56;;;;;;;1.37;1.37;;;19.00;77.30;;;;;;5130725;27;43436;-71
2023/10/30 10:23:25;;;;;;;1.40;1.40;;;18.90;77.20;;;;;;5131963;27;43394;-72
2023/10/30 10:25:56;;;;;;;1.30;1.30;;;18.90;77.30;;;;;;5128973;27;43600;-71
2023/10/30 10:28:24;;;;;;;1.63;1.60;;;18.90;77.70;;;;;;5130652;27;43384;-72
2023/10/30 10:30:53;;;;;;;1.40;1.40;;;18.90;77.80;;;;;;5130966;27;43377;-71
2023/10/30 10:33:21;;;;;;;1.53;1.43;;;18.90;77.60;;;;;;5130345;27;43369;-71
2023/10/30 10:35:54;;;;;;;1.30;1.30;;;18.90;77.50;;;;;;5083996;28;43677;-71
2023/10/30 10:38:22;;;;;;;1.53;1.50;;;18.90;77.60;;;;;;5077121;27;43743;-70
2023/10/30 10:40:51;;;;;;;1.60;1.50;;;18.80;77.70;;;;;;5083378;27;43462;-70
2023/10/30 10:43:20;;;;;;;1.37;1.30;;;18.80;78.00;;;;;;5089672;27;43437;-70
2023/10/30 10:45:49;;;;;;;1.00;1.00;;;18.90;78.00;;;;;;5073405;28;43626;-70
2023/10/30 10:48:18;;;;;;;1.50;1.40;;;19.00;77.60;;;;;;5081164;28;43394;-71
2023/10/30 10:50:46;;;;;;;1.40;1.40;;;19.20;77.20;;;;;;5079783;28;43419;-70
2023/10/30 10:53:14;;;;;;;1.33;1.33;;;19.20;76.80;;;;;;5074233;28;43484;-70
2023/10/30 10:55:43;;;;;;;1.27;1.27;;;19.20;76.60;;;;;;5084552;28;43712;-70
2023/10/30 10:58:12;;;;;;;1.30;1.30;;;19.20;76.50;;;;;;5082063;28;43412;-70
2023/10/30 11:00:46;;;;;;;1.20;1.20;;;19.10;76.60;;;;;;5086846;28;43964;-70
2023/10/30 11:03:15;;;;;;;1.40;1.30;;;19.10;76.90;;;;;;5078823;28;43398;-70
2023/10/30 11:05:44;;;;;;;1.17;1.17;;;19.00;77.20;;;;;;5082765;28;44014;-70
2023/10/30 11:08:33;;;;;;;1.27;1.27;;;19.00;77.50;;;;;;5071807;28;43406;-70
2023/10/30 11:11:07;;;;;;;1.10;1.10;;;19.00;77.40;;;;;;5076299;28;43436;-70
2023/10/30 11:13:40;;;;;;;1.30;1.30;;;18.90;77.30;;;;;;5075329;28;43540;-70
2023/10/30 11:16:11;;;;;;;1.40;1.40;;;18.90;77.30;;;;;;5076540;28;43625;-70
2023/10/30 11:18:39;;;;;;;1.00;1.00;;;18.90;77.50;;;;;;5079914;28;44265;-68
2023/10/30 11:21:09;;;;;;;1.10;1.10;;;18.90;78.00;;;;;;5075627;28;43983;-68
2023/10/30 11:23:52;;;;;;;1.40;1.30;;;18.90;77.90;;;;;;5076479;28;43475;-69
2023/10/30 11:26:43;;;;;;;1.20;1.20;;;19.10;77.60;;;;;;5080377;28;44081;-68
2023/10/30 11:29:17;;;;;;;1.20;1.20;;;19.10;77.20;;;;;;5076720;28;43414;-68
2023/10/30 11:32:04;;;;;;;1.10;1.10;;;19.10;76.90;;;;;;5080108;28;43372;-68
2023/10/30 11:34:35;;;;;;;1.27;1.27;;;19.10;77.40;;;;;;5096419;27;43381;-67
2023/10/30 11:37:05;;;;;;;1.20;1.20;;;19.10;77.40;;;;;;5123994;27;43895;-68
2023/10/30 11:39:35;;;;;;;1.10;1.10;;;19.10;77.20;;;;;;5123849;27;43409;-68
2023/10/30 11:42:04;;;;;;;1.30;1.30;;;19.10;77.20;;;;;;5127107;27;43374;-68
2023/10/30 11:44:33;;;;;;;1.43;1.43;;;19.00;77.20;;;;;;5126362;27;43776;-69
2023/10/30 11:47:03;;;;;;;1.30;1.30;;;18.90;77.30;;;;;;5123284;27;44181;-71
2023/10/30 11:49:32;;;;;;;1.30;1.30;;;19.00;77.80;;;;;;5116826;27;45009;-71
2023/10/30 11:52:00;;;;;;;1.20;1.20;;;18.90;77.60;;;;;;5123559;27;43404;-71
2023/10/30 11:54:32;;;;;;;1.17;1.17;;;18.90;77.50;;;;;;5126350;27;43457;-71
2023/10/30 11:57:00;;;;;;;1.10;1.10;;;18.90;77.50;;;;;;5122297;27;43563;-71
2023/10/30 11:59:28;;;;;;;1.17;1.17;;;18.90;77.60;;;;;;5129159;27;43525;-70
2023/10/30 12:01:57;;;;;;;1.13;1.13;;;18.80;77.90;;;;;;5128703;27;43499;-70
2023/10/30 12:04:27;;;;;;;1.30;1.30;;;18.90;78.00;;;;;;5126130;27;43563;-71
2023/10/30 12:06:55;;;;;;;1.10;1.10;;;18.80;77.70;;;;;;5125697;27;45700;-71
2023/10/30 12:09:25;;;;;;;1.40;1.30;;;18.80;77.60;;;;;;5127989;27;44100;-71
2023/10/30 12:11:55;;;;;;;1.10;1.10;;;18.80;77.70;;;;;;5128141;27;44064;-70
2023/10/30 12:14:23;;;;;;;1.07;1.07;;;18.80;77.80;;;;;;5127112;27;43461;-70
2023/10/30 12:16:52;;;;;;;1.10;1.10;;;18.80;78.20;;;;;;5128090;27;43593;-71
2023/10/30 12:19:20;;;;;;;1.20;1.20;;;18.80;78.20;;;;;;5128437;27;43401;-70
2023/10/30 12:21:50;;;;;;;1.00;1.00;;;19.00;77.90;;;;;;5127152;27;43447;-70
2023/10/30 12:24:18;;;;;;;1.07;1.07;;;19.10;77.30;;;;;;5129259;27;43633;-71
2023/10/30 12:26:47;;;;;;;0.80;0.80;;;19.20;76.90;;;;;;5128308;27;43627;-68
2023/10/30 12:29:20;;;;;;;1.20;1.20;;;19.20;76.60;;;;;;5128738;27;43390;-69
2023/10/30 12:31:51;;;;;;;1.20;1.20;;;19.20;76.60;;;;;;5126000;27;43347;-68
2023/10/30 12:34:22;;;;;;;1.10;1.10;;;19.10;76.70;;;;;;5130071;27;43509;-68
2023/10/30 12:36:52;;;;;;;1.10;1.10;;;19.10;76.90;;;;;;5129421;27;43626;-68
2023/10/30 12:39:21;;;;;;;0.97;0.97;;;19.00;77.10;;;;;;5129669;27;43995;-68
2023/10/30 12:41:55;;;;;;;1.10;1.10;;;19.00;77.60;;;;;;5130111;27;43464;-68
2023/10/30 12:44:24;;;;;;;1.20;1.20;;;19.00;77.50;;;;;;5131007;27;43362;-68
2023/10/30 12:46:52;;;;;;;1.00;1.00;;;18.90;77.30;;;;;;5130540;27;43607;-68
2023/10/30 12:49:20;;;;;;;1.20;1.20;;;18.90;77.40;;;;;;5130187;27;43406;-68
2023/10/30 12:51:48;;;;;;;1.07;1.07;;;18.90;77.60;;;;;;5130689;27;43431;-68
2023/10/30 12:54:18;;;;;;;1.10;1.10;;;18.90;78.00;;;;;;5128521;27;43362;-68
2023/10/30 12:56:46;;;;;;;1.33;1.20;;;18.90;77.90;;;;;;5128617;27;43607;-71